Chernivtsi, Ukraine
Current Conditions -  °F | °C
As of 10:35 AM on Friday 19 Dec 2014 (Local Time) from UKLN Reporting Station
Haze Haze  
Wind Chill: 21°   Ceiling: 10000
Heat Index: 27°   Visibility: 1.8mi
Dew Point: 27°   Wind: 4mph
Humidity: 100%   Direction: 110°ESE
Pressure: 29.97"   Gusts: NA
Location:  48.3°N, 25.93°E
Report Text: UKLN 190735Z 11002MPS 2900 BR BKN100 M03/M03 Q1015 1531//60 NOSIG
Loading
Personal Weather Stations






























Interactive Weather Map New forecast layout! Learn more

10-Day Weather Forecast

Advertisements
Track Severe Weather on mobile